sensor_id;sensor_type;location;lat;lon;timestamp;temperature;humidity
65036;DHT22;51603;49.300;8.880;2022-11-15T00:01:18;6.80;99.90
65036;DHT22;51603;49.300;8.880;2022-11-15T00:03:44;6.80;99.90
65036;DHT22;51603;49.300;8.880;2022-11-15T00:06:09;6.80;99.90
65036;DHT22;51603;49.300;8.880;2022-11-15T00:08:35;6.80;99.90
65036;DHT22;51603;49.300;8.880;2022-11-15T00:11:02;6.80;99.90
65036;DHT22;51603;49.300;8.880;2022-11-15T00:13:28;6.80;99.90
65036;DHT22;51603;49.300;8.880;2022-11-15T00:16:00;6.80;99.90
65036;DHT22;51603;49.300;8.880;2022-11-15T00:18:26;6.80;99.90
65036;DHT22;51603;49.300;8.880;2022-11-15T00:20:51;6.80;99.90
65036;DHT22;51603;49.300;8.880;2022-11-15T00:23:17;6.80;99.90
65036;DHT22;51603;49.300;8.880;2022-11-15T00:25:42;6.80;99.90
65036;DHT22;51603;49.300;8.880;2022-11-15T00:28:08;6.90;99.90
65036;DHT22;51603;49.300;8.880;2022-11-15T00:30:33;6.90;99.90
65036;DHT22;51603;49.300;8.880;2022-11-15T00:33:06;6.90;99.90
65036;DHT22;51603;49.300;8.880;2022-11-15T00:35:33;6.90;99.90
65036;DHT22;51603;49.300;8.880;2022-11-15T00:38:00;7.00;99.90
65036;DHT22;51603;49.300;8.880;2022-11-15T00:40:26;6.90;99.90
65036;DHT22;51603;49.300;8.880;2022-11-15T00:42:51;6.90;99.90
65036;DHT22;51603;49.300;8.880;2022-11-15T00:45:17;6.90;99.90
65036;DHT22;51603;49.300;8.880;2022-11-15T00:47:45;6.90;99.90
65036;DHT22;51603;49.300;8.880;2022-11-15T00:50:12;6.90;99.90
65036;DHT22;51603;49.300;8.880;2022-11-15T00:52:37;6.80;99.90
65036;DHT22;51603;49.300;8.880;2022-11-15T00:55:03;6.80;99.90
65036;DHT22;51603;49.300;8.880;2022-11-15T00:57:29;6.80;99.90
65036;DHT22;51603;49.300;8.880;2022-11-15T00:59:55;6.80;99.90
65036;DHT22;51603;49.300;8.880;2022-11-15T01:02:20;6.80;99.90
65036;DHT22;51603;49.300;8.880;2022-11-15T01:04:46;6.80;99.90
65036;DHT22;51603;49.300;8.880;2022-11-15T01:07:11;6.70;99.90
65036;DHT22;51603;49.300;8.880;2022-11-15T01:09:37;6.70;99.90
65036;DHT22;51603;49.300;8.880;2022-11-15T01:12:03;6.70;99.90
65036;DHT22;51603;49.300;8.880;2022-11-15T01:14:28;6.70;99.90
65036;DHT22;51603;49.300;8.880;2022-11-15T01:16:54;6.70;99.90
65036;DHT22;51603;49.300;8.880;2022-11-15T01:19:20;6.60;99.90
65036;DHT22;51603;49.300;8.880;2022-11-15T01:21:45;6.60;99.90
65036;DHT22;51603;49.300;8.880;2022-11-15T01:24:13;6.70;99.90
65036;DHT22;51603;49.300;8.880;2022-11-15T01:26:39;6.60;99.90
65036;DHT22;51603;49.300;8.880;2022-11-15T01:29:04;6.60;99.90
65036;DHT22;51603;49.300;8.880;2022-11-15T01:31:30;6.60;99.90
65036;DHT22;51603;49.300;8.880;2022-11-15T01:33:55;6.60;99.90
65036;DHT22;51603;49.300;8.880;2022-11-15T01:36:22;6.60;99.90
65036;DHT22;51603;49.300;8.880;2022-11-15T01:38:53;6.60;99.90
65036;DHT22;51603;49.300;8.880;2022-11-15T01:41:22;6.60;99.90
65036;DHT22;51603;49.300;8.880;2022-11-15T01:43:53;6.70;99.90
65036;DHT22;51603;49.300;8.880;2022-11-15T01:46:23;6.70;99.90
65036;DHT22;51603;49.300;8.880;2022-11-15T01:48:51;6.80;99.90
65036;DHT22;51603;49.300;8.880;2022-11-15T01:51:20;6.80;99.90
65036;DHT22;51603;49.300;8.880;2022-11-15T01:53:49;6.90;99.90
65036;DHT22;51603;49.300;8.880;2022-11-15T01:56:20;6.90;99.90
65036;DHT22;51603;49.300;8.880;2022-11-15T01:58:47;6.90;99.90
65036;DHT22;51603;49.300;8.880;2022-11-15T02:01:26;6.90;99.90
65036;DHT22;51603;49.300;8.880;2022-11-15T02:03:58;6.90;99.90
65036;DHT22;51603;49.300;8.880;2022-11-15T02:06:24;6.90;99.90
65036;DHT22;51603;49.300;8.880;2022-11-15T02:08:50;6.90;99.90
65036;DHT22;51603;49.300;8.880;2022-11-15T02:11:16;6.80;99.90
65036;DHT22;51603;49.300;8.880;2022-11-15T02:13:42;6.70;99.90
65036;DHT22;51603;49.300;8.880;2022-11-15T02:32:58;6.50;99.90
65036;DHT22;51603;49.300;8.880;2022-11-15T02:38:01;6.50;99.90
65036;DHT22;51603;49.300;8.880;2022-11-15T02:40:41;6.50;99.90
65036;DHT22;51603;49.300;8.880;2022-11-15T02:43:12;6.50;99.90
65036;DHT22;51603;49.300;8.880;2022-11-15T02:49:10;6.40;99.90
65036;DHT22;51603;49.300;8.880;2022-11-15T02:51:36;6.40;99.90
65036;DHT22;51603;49.300;8.880;2022-11-15T02:54:02;6.40;99.90
65036;DHT22;51603;49.300;8.880;2022-11-15T02:56:28;6.40;99.90
65036;DHT22;51603;49.300;8.880;2022-11-15T02:59:29;6.40;99.90
65036;DHT22;51603;49.300;8.880;2022-11-15T03:08:01;6.30;99.90
65036;DHT22;51603;49.300;8.880;2022-11-15T03:12:41;6.30;99.90
65036;DHT22;51603;49.300;8.880;2022-11-15T03:15:26;6.30;99.90
65036;DHT22;51603;49.300;8.880;2022-11-15T03:18:12;6.30;99.90
65036;DHT22;51603;49.300;8.880;2022-11-15T03:20:40;6.40;99.90
65036;DHT22;51603;49.300;8.880;2022-11-15T03:23:10;6.40;99.90
65036;DHT22;51603;49.300;8.880;2022-11-15T03:25:40;6.40;99.90
65036;DHT22;51603;49.300;8.880;2022-11-15T03:28:09;6.40;99.90
65036;DHT22;51603;49.300;8.880;2022-11-15T03:30:36;6.40;99.90
65036;DHT22;51603;49.300;8.880;2022-11-15T03:33:04;6.40;99.90
65036;DHT22;51603;49.300;8.880;2022-11-15T03:35:40;6.50;99.90
65036;DHT22;51603;49.300;8.880;2022-11-15T03:43:44;6.60;99.90
65036;DHT22;51603;49.300;8.880;2022-11-15T03:46:37;6.60;99.90
65036;DHT22;51603;49.300;8.880;2022-11-15T03:49:13;6.60;99.90
65036;DHT22;51603;49.300;8.880;2022-11-15T03:51:41;6.70;99.90
65036;DHT22;51603;49.300;8.880;2022-11-15T03:54:06;6.70;99.90
65036;DHT22;51603;49.300;8.880;2022-11-15T03:56:32;6.70;99.90
65036;DHT22;51603;49.300;8.880;2022-11-15T03:58:57;6.80;99.90
65036;DHT22;51603;49.300;8.880;2022-11-15T04:01:23;6.80;99.90
65036;DHT22;51603;49.300;8.880;2022-11-15T04:03:49;6.80;99.90
65036;DHT22;51603;49.300;8.880;2022-11-15T04:06:14;6.80;99.90
65036;DHT22;51603;49.300;8.880;2022-11-15T04:08:40;6.80;99.90
65036;DHT22;51603;49.300;8.880;2022-11-15T04:11:05;6.90;99.90
65036;DHT22;51603;49.300;8.880;2022-11-15T04:13:31;6.90;99.90
65036;DHT22;51603;49.300;8.880;2022-11-15T04:15:56;6.90;99.90
65036;DHT22;51603;49.300;8.880;2022-11-15T04:18:22;6.90;99.90
65036;DHT22;51603;49.300;8.880;2022-11-15T04:20:49;7.00;99.90
65036;DHT22;51603;49.300;8.880;2022-11-15T04:23:33;7.00;99.90
65036;DHT22;51603;49.300;8.880;2022-11-15T04:26:20;7.00;99.90
65036;DHT22;51603;49.300;8.880;2022-11-15T04:28:46;7.00;99.90
65036;DHT22;51603;49.300;8.880;2022-11-15T04:31:30;7.00;99.90
65036;DHT22;51603;49.300;8.880;2022-11-15T04:33:56;7.10;99.90
65036;DHT22;51603;49.300;8.880;2022-11-15T04:36:21;7.10;99.90
65036;DHT22;51603;49.300;8.880;2022-11-15T04:39:06;7.10;99.90
65036;DHT22;51603;49.300;8.880;2022-11-15T04:41:32;7.10;99.90
65036;DHT22;51603;49.300;8.880;2022-11-15T04:43:57;7.10;99.90
65036;DHT22;51603;49.300;8.880;2022-11-15T04:46:24;7.10;99.90
65036;DHT22;51603;49.300;8.880;2022-11-15T04:48:50;7.10;99.90
65036;DHT22;51603;49.300;8.880;2022-11-15T04:51:16;7.20;99.90
65036;DHT22;51603;49.300;8.880;2022-11-15T04:53:41;7.20;99.90
65036;DHT22;51603;49.300;8.880;2022-11-15T04:56:07;7.20;99.90
65036;DHT22;51603;49.300;8.880;2022-11-15T04:58:32;7.20;99.90
65036;DHT22;51603;49.300;8.880;2022-11-15T05:01:13;7.20;99.90
65036;DHT22;51603;49.300;8.880;2022-11-15T05:03:44;7.20;99.90
65036;DHT22;51603;49.300;8.880;2022-11-15T05:06:29;7.20;99.90
65036;DHT22;51603;49.300;8.880;2022-11-15T05:08:55;7.20;99.90
65036;DHT22;51603;49.300;8.880;2022-11-15T05:11:21;7.20;99.90
65036;DHT22;51603;49.300;8.880;2022-11-15T05:13:47;7.20;99.90
65036;DHT22;51603;49.300;8.880;2022-11-15T05:16:12;7.20;99.90
65036;DHT22;51603;49.300;8.880;2022-11-15T05:18:38;7.20;99.90
65036;DHT22;51603;49.300;8.880;2022-11-15T05:21:11;7.20;99.90
65036;DHT22;51603;49.300;8.880;2022-11-15T05:23:37;7.20;99.90
65036;DHT22;51603;49.300;8.880;2022-11-15T05:26:05;7.10;99.90
65036;DHT22;51603;49.300;8.880;2022-11-15T05:28:31;7.10;99.90
65036;DHT22;51603;49.300;8.880;2022-11-15T05:31:02;7.10;99.90
65036;DHT22;51603;49.300;8.880;2022-11-15T05:33:28;7.10;99.90
65036;DHT22;51603;49.300;8.880;2022-11-15T05:36:13;7.10;99.90
65036;DHT22;51603;49.300;8.880;2022-11-15T05:38:41;7.10;99.90
65036;DHT22;51603;49.300;8.880;2022-11-15T05:41:06;7.00;99.90
65036;DHT22;51603;49.300;8.880;2022-11-15T05:43:34;7.00;99.90
65036;DHT22;51603;49.300;8.880;2022-11-15T05:46:02;7.00;99.90
65036;DHT22;51603;49.300;8.880;2022-11-15T05:48:28;7.10;99.90
65036;DHT22;51603;49.300;8.880;2022-11-15T05:50:54;7.10;99.90
65036;DHT22;51603;49.300;8.880;2022-11-15T05:53:22;7.10;99.90
65036;DHT22;51603;49.300;8.880;2022-11-15T05:55:50;7.00;99.90
65036;DHT22;51603;49.300;8.880;2022-11-15T05:58:16;7.00;99.90
65036;DHT22;51603;49.300;8.880;2022-11-15T06:00:42;7.00;99.90
65036;DHT22;51603;49.300;8.880;2022-11-15T06:03:09;7.00;99.90
65036;DHT22;51603;49.300;8.880;2022-11-15T06:05:34;7.00;99.90
65036;DHT22;51603;49.300;8.880;2022-11-15T06:08:00;7.00;99.90
65036;DHT22;51603;49.300;8.880;2022-11-15T06:10:25;7.00;99.90
65036;DHT22;51603;49.300;8.880;2022-11-15T06:13:02;7.10;99.90
65036;DHT22;51603;49.300;8.880;2022-11-15T06:15:28;7.10;99.90
65036;DHT22;51603;49.300;8.880;2022-11-15T06:17:57;7.10;99.90
65036;DHT22;51603;49.300;8.880;2022-11-15T06:20:27;7.10;99.90
65036;DHT22;51603;49.300;8.880;2022-11-15T06:23:03;7.10;99.90
65036;DHT22;51603;49.300;8.880;2022-11-15T06:25:30;7.10;99.90
65036;DHT22;51603;49.300;8.880;2022-11-15T06:27:57;7.00;99.90
65036;DHT22;51603;49.300;8.880;2022-11-15T06:30:24;6.90;99.90
65036;DHT22;51603;49.300;8.880;2022-11-15T06:32:50;6.90;99.90
65036;DHT22;51603;49.300;8.880;2022-11-15T06:35:15;6.90;99.90
65036;DHT22;51603;49.300;8.880;2022-11-15T06:37:42;6.80;99.90
65036;DHT22;51603;49.300;8.880;2022-11-15T06:40:09;6.80;99.90
65036;DHT22;51603;49.300;8.880;2022-11-15T06:42:35;6.80;99.90
65036;DHT22;51603;49.300;8.880;2022-11-15T06:45:01;6.70;99.90
65036;DHT22;51603;49.300;8.880;2022-11-15T06:47:26;6.60;99.90
65036;DHT22;51603;49.300;8.880;2022-11-15T06:49:52;6.70;99.90
65036;DHT22;51603;49.300;8.880;2022-11-15T06:52:17;6.70;99.90
65036;DHT22;51603;49.300;8.880;2022-11-15T06:54:44;6.70;99.90
65036;DHT22;51603;49.300;8.880;2022-11-15T06:57:10;6.80;99.90
65036;DHT22;51603;49.300;8.880;2022-11-15T06:59:36;6.80;99.90
65036;DHT22;51603;49.300;8.880;2022-11-15T07:02:01;6.90;99.90
65036;DHT22;51603;49.300;8.880;2022-11-15T07:04:27;6.90;99.90
65036;DHT22;51603;49.300;8.880;2022-11-15T07:06:52;6.90;99.90
65036;DHT22;51603;49.300;8.880;2022-11-15T07:09:18;6.80;99.90
65036;DHT22;51603;49.300;8.880;2022-11-15T07:11:44;6.80;99.90
65036;DHT22;51603;49.300;8.880;2022-11-15T07:14:09;6.80;99.90
65036;DHT22;51603;49.300;8.880;2022-11-15T07:16:36;6.80;99.90
65036;DHT22;51603;49.300;8.880;2022-11-15T07:19:01;6.80;99.90
65036;DHT22;51603;49.300;8.880;2022-11-15T07:21:27;6.80;99.90
65036;DHT22;51603;49.300;8.880;2022-11-15T07:23:53;6.80;99.90
65036;DHT22;51603;49.300;8.880;2022-11-15T07:26:18;6.90;99.90
65036;DHT22;51603;49.300;8.880;2022-11-15T07:28:44;7.00;99.90
65036;DHT22;51603;49.300;8.880;2022-11-15T07:31:09;7.10;99.90
65036;DHT22;51603;49.300;8.880;2022-11-15T07:33:35;7.20;99.90
65036;DHT22;51603;49.300;8.880;2022-11-15T07:36:03;7.30;99.90
65036;DHT22;51603;49.300;8.880;2022-11-15T07:38:29;7.40;99.90
65036;DHT22;51603;49.300;8.880;2022-11-15T07:41:03;7.50;99.90
65036;DHT22;51603;49.300;8.880;2022-11-15T07:43:29;7.50;99.90
65036;DHT22;51603;49.300;8.880;2022-11-15T07:45:56;7.60;99.90
65036;DHT22;51603;49.300;8.880;2022-11-15T07:48:22;7.70;99.90
65036;DHT22;51603;49.300;8.880;2022-11-15T07:50:48;7.70;99.90
65036;DHT22;51603;49.300;8.880;2022-11-15T07:53:14;7.70;99.90
65036;DHT22;51603;49.300;8.880;2022-11-15T07:55:40;7.70;99.90
65036;DHT22;51603;49.300;8.880;2022-11-15T07:58:11;7.80;99.90
65036;DHT22;51603;49.300;8.880;2022-11-15T08:00:37;7.80;99.90
65036;DHT22;51603;49.300;8.880;2022-11-15T08:03:09;7.80;99.90
65036;DHT22;51603;49.300;8.880;2022-11-15T08:05:36;7.90;99.90
65036;DHT22;51603;49.300;8.880;2022-11-15T08:08:02;7.90;99.90
65036;DHT22;51603;49.300;8.880;2022-11-15T08:10:28;8.00;99.90
65036;DHT22;51603;49.300;8.880;2022-11-15T08:13:02;8.00;99.90
65036;DHT22;51603;49.300;8.880;2022-11-15T08:15:29;8.10;99.90
65036;DHT22;51603;49.300;8.880;2022-11-15T08:17:56;8.20;99.90
65036;DHT22;51603;49.300;8.880;2022-11-15T08:20:22;8.20;99.90
65036;DHT22;51603;49.300;8.880;2022-11-15T08:22:48;8.20;99.90
65036;DHT22;51603;49.300;8.880;2022-11-15T08:25:13;8.30;99.90
65036;DHT22;51603;49.300;8.880;2022-11-15T08:27:39;8.30;99.90
65036;DHT22;51603;49.300;8.880;2022-11-15T08:30:05;8.40;99.90
65036;DHT22;51603;49.300;8.880;2022-11-15T08:32:31;8.40;99.90
65036;DHT22;51603;49.300;8.880;2022-11-15T08:34:57;8.50;99.90
65036;DHT22;51603;49.300;8.880;2022-11-15T08:37:23;8.50;99.90
65036;DHT22;51603;49.300;8.880;2022-11-15T08:39:48;8.60;99.90
65036;DHT22;51603;49.300;8.880;2022-11-15T08:42:14;8.60;99.90
65036;DHT22;51603;49.300;8.880;2022-11-15T08:44:41;8.70;99.90
65036;DHT22;51603;49.300;8.880;2022-11-15T08:47:07;8.70;99.90
65036;DHT22;51603;49.300;8.880;2022-11-15T08:49:33;8.80;99.90
65036;DHT22;51603;49.300;8.880;2022-11-15T08:51:59;8.80;99.90
65036;DHT22;51603;49.300;8.880;2022-11-15T08:54:24;8.80;99.90
65036;DHT22;51603;49.300;8.880;2022-11-15T08:56:50;8.90;99.90
65036;DHT22;51603;49.300;8.880;2022-11-15T08:59:15;9.00;99.90
65036;DHT22;51603;49.300;8.880;2022-11-15T09:01:41;9.10;99.90
65036;DHT22;51603;49.300;8.880;2022-11-15T09:04:06;9.10;99.90
65036;DHT22;51603;49.300;8.880;2022-11-15T09:06:32;9.20;99.90
65036;DHT22;51603;49.300;8.880;2022-11-15T09:08:57;9.20;99.90
65036;DHT22;51603;49.300;8.880;2022-11-15T09:11:23;9.30;99.90
65036;DHT22;51603;49.300;8.880;2022-11-15T09:13:49;9.30;99.90
65036;DHT22;51603;49.300;8.880;2022-11-15T09:16:14;9.40;99.90
65036;DHT22;51603;49.300;8.880;2022-11-15T09:18:40;9.40;99.90
65036;DHT22;51603;49.300;8.880;2022-11-15T09:21:06;9.40;99.90
65036;DHT22;51603;49.300;8.880;2022-11-15T09:23:32;9.40;99.90
65036;DHT22;51603;49.300;8.880;2022-11-15T09:25:59;9.40;99.90
65036;DHT22;51603;49.300;8.880;2022-11-15T09:28:26;9.50;99.90
65036;DHT22;51603;49.300;8.880;2022-11-15T09:30:56;9.50;99.90
65036;DHT22;51603;49.300;8.880;2022-11-15T09:33:22;9.50;99.90
65036;DHT22;51603;49.300;8.880;2022-11-15T09:35:47;9.60;99.90
65036;DHT22;51603;49.300;8.880;2022-11-15T09:38:13;9.70;99.90
65036;DHT22;51603;49.300;8.880;2022-11-15T09:40:38;9.70;99.90
65036;DHT22;51603;49.300;8.880;2022-11-15T09:48:53;10.00;99.90
65036;DHT22;51603;49.300;8.880;2022-11-15T09:51:30;10.00;99.90
65036;DHT22;51603;49.300;8.880;2022-11-15T09:54:04;10.10;99.90
65036;DHT22;51603;49.300;8.880;2022-11-15T09:56:32;10.20;99.90
65036;DHT22;51603;49.300;8.880;2022-11-15T09:59:23;10.20;99.90
65036;DHT22;51603;49.300;8.880;2022-11-15T10:04:34;10.30;99.90
65036;DHT22;51603;49.300;8.880;2022-11-15T10:07:10;10.40;99.90
65036;DHT22;51603;49.300;8.880;2022-11-15T10:12:10;10.50;99.90
65036;DHT22;51603;49.300;8.880;2022-11-15T10:14:37;10.60;99.90
65036;DHT22;51603;49.300;8.880;2022-11-15T10:20:13;10.60;99.90
65036;DHT22;51603;49.300;8.880;2022-11-15T10:22:45;10.70;99.90
65036;DHT22;51603;49.300;8.880;2022-11-15T10:25:23;10.70;99.90
65036;DHT22;51603;49.300;8.880;2022-11-15T10:30:40;10.90;99.90
65036;DHT22;51603;49.300;8.880;2022-11-15T10:44:19;11.30;99.90
65036;DHT22;51603;49.300;8.880;2022-11-15T10:47:20;11.30;99.90
65036;DHT22;51603;49.300;8.880;2022-11-15T10:49:33;11.40;99.90
65036;DHT22;51603;49.300;8.880;2022-11-15T10:52:04;11.40;99.90
65036;DHT22;51603;49.300;8.880;2022-11-15T10:54:57;11.40;99.90
65036;DHT22;51603;49.300;8.880;2022-11-15T10:57:28;11.40;99.90
65036;DHT22;51603;49.300;8.880;2022-11-15T10:59:57;11.40;99.90
65036;DHT22;51603;49.300;8.880;2022-11-15T11:02:30;11.40;99.90
65036;DHT22;51603;49.300;8.880;2022-11-15T11:04:56;11.40;99.90
65036;DHT22;51603;49.300;8.880;2022-11-15T11:07:25;11.40;99.90
65036;DHT22;51603;49.300;8.880;2022-11-15T11:09:58;11.50;99.90
65036;DHT22;51603;49.300;8.880;2022-11-15T11:12:30;11.50;99.90
65036;DHT22;51603;49.300;8.880;2022-11-15T11:14:58;11.60;99.90
65036;DHT22;51603;49.300;8.880;2022-11-15T11:26:29;11.70;99.90
65036;DHT22;51603;49.300;8.880;2022-11-15T11:29:08;11.80;99.90
65036;DHT22;51603;49.300;8.880;2022-11-15T11:31:43;11.80;99.90
65036;DHT22;51603;49.300;8.880;2022-11-15T11:37:04;11.90;99.90
65036;DHT22;51603;49.300;8.880;2022-11-15T11:48:32;12.10;99.90
65036;DHT22;51603;49.300;8.880;2022-11-15T11:51:15;12.10;99.90
65036;DHT22;51603;49.300;8.880;2022-11-15T11:54:01;12.10;99.90
65036;DHT22;51603;49.300;8.880;2022-11-15T11:56:31;12.20;99.90
65036;DHT22;51603;49.300;8.880;2022-11-15T11:59:05;12.20;99.90
65036;DHT22;51603;49.300;8.880;2022-11-15T12:01:37;12.30;99.90
65036;DHT22;51603;49.300;8.880;2022-11-15T12:04:36;12.20;99.90
65036;DHT22;51603;49.300;8.880;2022-11-15T12:09:47;12.30;99.90
65036;DHT22;51603;49.300;8.880;2022-11-15T12:12:23;12.40;99.90
65036;DHT22;51603;49.300;8.880;2022-11-15T12:15:12;12.30;99.90
65036;DHT22;51603;49.300;8.880;2022-11-15T12:17:41;12.40;99.90
65036;DHT22;51603;49.300;8.880;2022-11-15T12:20:22;12.40;99.90
65036;DHT22;51603;49.300;8.880;2022-11-15T12:23:23;12.40;99.90
65036;DHT22;51603;49.300;8.880;2022-11-15T12:26:03;12.30;99.90
65036;DHT22;51603;49.300;8.880;2022-11-15T12:28:41;12.30;99.90
65036;DHT22;51603;49.300;8.880;2022-11-15T12:34:02;12.20;99.90
65036;DHT22;51603;49.300;8.880;2022-11-15T12:36:35;12.20;99.90
65036;DHT22;51603;49.300;8.880;2022-11-15T12:39:06;12.30;99.90
65036;DHT22;51603;49.300;8.880;2022-11-15T12:41:34;12.20;99.90
65036;DHT22;51603;49.300;8.880;2022-11-15T12:44:00;12.20;99.90
65036;DHT22;51603;49.300;8.880;2022-11-15T12:48:58;12.20;99.90
65036;DHT22;51603;49.300;8.880;2022-11-15T12:59:49;12.20;99.90
65036;DHT22;51603;49.300;8.880;2022-11-15T13:17:54;12.10;99.90
65036;DHT22;51603;49.300;8.880;2022-11-15T13:20:23;12.10;99.90
65036;DHT22;51603;49.300;8.880;2022-11-15T13:30:51;12.10;99.90
65036;DHT22;51603;49.300;8.880;2022-11-15T13:33:25;12.20;99.90
65036;DHT22;51603;49.300;8.880;2022-11-15T13:35:54;12.20;99.90
65036;DHT22;51603;49.300;8.880;2022-11-15T13:38:30;12.20;99.90
65036;DHT22;51603;49.300;8.880;2022-11-15T13:40:57;12.30;99.90
65036;DHT22;51603;49.300;8.880;2022-11-15T13:43:26;12.30;99.90
65036;DHT22;51603;49.300;8.880;2022-11-15T13:48:35;12.40;99.90
65036;DHT22;51603;49.300;8.880;2022-11-15T13:51:08;12.40;99.90
65036;DHT22;51603;49.300;8.880;2022-11-15T13:53:37;12.40;99.90
65036;DHT22;51603;49.300;8.880;2022-11-15T13:56:03;12.50;99.90
65036;DHT22;51603;49.300;8.880;2022-11-15T13:58:30;12.40;99.90
65036;DHT22;51603;49.300;8.880;2022-11-15T14:01:04;12.40;99.90
65036;DHT22;51603;49.300;8.880;2022-11-15T14:03:37;12.50;99.90
65036;DHT22;51603;49.300;8.880;2022-11-15T14:06:12;12.50;99.90
65036;DHT22;51603;49.300;8.880;2022-11-15T14:08:41;12.50;99.90
65036;DHT22;51603;49.300;8.880;2022-11-15T14:11:15;12.60;99.90
65036;DHT22;51603;49.300;8.880;2022-11-15T14:13:41;12.60;99.90
65036;DHT22;51603;49.300;8.880;2022-11-15T14:16:19;12.60;99.90
65036;DHT22;51603;49.300;8.880;2022-11-15T14:18:52;12.60;99.90
65036;DHT22;51603;49.300;8.880;2022-11-15T14:21:19;12.60;99.90
65036;DHT22;51603;49.300;8.880;2022-11-15T14:23:45;12.60;99.90
65036;DHT22;51603;49.300;8.880;2022-11-15T14:26:32;12.50;99.90
65036;DHT22;51603;49.300;8.880;2022-11-15T14:29:21;12.50;99.90
65036;DHT22;51603;49.300;8.880;2022-11-15T14:31:47;12.50;99.90
65036;DHT22;51603;49.300;8.880;2022-11-15T14:34:12;12.40;99.90
65036;DHT22;51603;49.300;8.880;2022-11-15T14:36:38;12.40;99.90
65036;DHT22;51603;49.300;8.880;2022-11-15T14:39:03;12.40;99.90
65036;DHT22;51603;49.300;8.880;2022-11-15T14:41:35;12.30;99.90
65036;DHT22;51603;49.300;8.880;2022-11-15T14:44:04;12.30;99.90
65036;DHT22;51603;49.300;8.880;2022-11-15T14:46:30;12.20;99.90
65036;DHT22;51603;49.300;8.880;2022-11-15T14:48:55;12.20;99.90
65036;DHT22;51603;49.300;8.880;2022-11-15T14:51:21;12.20;99.90
65036;DHT22;51603;49.300;8.880;2022-11-15T14:53:47;12.20;99.90
65036;DHT22;51603;49.300;8.880;2022-11-15T14:56:13;12.20;99.90
65036;DHT22;51603;49.300;8.880;2022-11-15T14:58:39;12.20;99.90
65036;DHT22;51603;49.300;8.880;2022-11-15T15:01:18;12.20;99.90
65036;DHT22;51603;49.300;8.880;2022-11-15T15:03:44;12.20;99.90
65036;DHT22;51603;49.300;8.880;2022-11-15T15:06:10;12.10;99.90
65036;DHT22;51603;49.300;8.880;2022-11-15T15:08:38;12.10;99.90
65036;DHT22;51603;49.300;8.880;2022-11-15T15:11:10;12.10;99.90
65036;DHT22;51603;49.300;8.880;2022-11-15T15:13:38;12.00;99.90
65036;DHT22;51603;49.300;8.880;2022-11-15T15:16:03;12.00;99.90
65036;DHT22;51603;49.300;8.880;2022-11-15T15:18:29;11.90;99.90
65036;DHT22;51603;49.300;8.880;2022-11-15T15:20:57;11.90;99.90
65036;DHT22;51603;49.300;8.880;2022-11-15T15:23:25;11.90;99.90
65036;DHT22;51603;49.300;8.880;2022-11-15T15:25:54;11.80;99.90
65036;DHT22;51603;49.300;8.880;2022-11-15T15:28:20;11.80;99.90
65036;DHT22;51603;49.300;8.880;2022-11-15T15:30:45;11.80;99.90
65036;DHT22;51603;49.300;8.880;2022-11-15T15:33:11;11.70;99.90
65036;DHT22;51603;49.300;8.880;2022-11-15T15:35:36;11.70;99.90
65036;DHT22;51603;49.300;8.880;2022-11-15T15:38:02;11.60;99.90
65036;DHT22;51603;49.300;8.880;2022-11-15T15:40:31;11.50;99.90
65036;DHT22;51603;49.300;8.880;2022-11-15T15:42:57;11.50;99.90
65036;DHT22;51603;49.300;8.880;2022-11-15T15:45:24;11.50;99.90
65036;DHT22;51603;49.300;8.880;2022-11-15T15:47:50;11.50;99.90
65036;DHT22;51603;49.300;8.880;2022-11-15T15:50:20;11.50;99.90
65036;DHT22;51603;49.300;8.880;2022-11-15T15:52:45;11.40;99.90
65036;DHT22;51603;49.300;8.880;2022-11-15T15:55:11;11.40;99.90
65036;DHT22;51603;49.300;8.880;2022-11-15T15:57:36;11.40;99.90
65036;DHT22;51603;49.300;8.880;2022-11-15T16:00:04;11.30;99.90
65036;DHT22;51603;49.300;8.880;2022-11-15T16:02:29;11.30;99.90
65036;DHT22;51603;49.300;8.880;2022-11-15T16:04:55;11.30;99.90
65036;DHT22;51603;49.300;8.880;2022-11-15T16:07:22;11.20;99.90
65036;DHT22;51603;49.300;8.880;2022-11-15T16:09:50;11.20;99.90
65036;DHT22;51603;49.300;8.880;2022-11-15T16:12:26;11.20;99.90
65036;DHT22;51603;49.300;8.880;2022-11-15T16:14:51;11.20;99.90
65036;DHT22;51603;49.300;8.880;2022-11-15T16:17:20;11.10;99.90
65036;DHT22;51603;49.300;8.880;2022-11-15T16:19:47;11.10;99.90
65036;DHT22;51603;49.300;8.880;2022-11-15T16:22:12;11.10;99.90
65036;DHT22;51603;49.300;8.880;2022-11-15T16:24:38;11.10;99.90
65036;DHT22;51603;49.300;8.880;2022-11-15T16:27:03;11.00;99.90
65036;DHT22;51603;49.300;8.880;2022-11-15T16:29:29;11.00;99.90
65036;DHT22;51603;49.300;8.880;2022-11-15T16:31:55;11.00;99.90
65036;DHT22;51603;49.300;8.880;2022-11-15T16:34:21;11.00;99.90
65036;DHT22;51603;49.300;8.880;2022-11-15T16:36:47;10.90;99.90
65036;DHT22;51603;49.300;8.880;2022-11-15T16:39:13;10.90;99.90
65036;DHT22;51603;49.300;8.880;2022-11-15T16:41:39;10.90;99.90
65036;DHT22;51603;49.300;8.880;2022-11-15T16:44:05;11.00;99.90
65036;DHT22;51603;49.300;8.880;2022-11-15T16:46:31;10.90;99.90
65036;DHT22;51603;49.300;8.880;2022-11-15T16:48:56;11.00;99.90
65036;DHT22;51603;49.300;8.880;2022-11-15T16:51:22;11.00;99.90
65036;DHT22;51603;49.300;8.880;2022-11-15T16:53:48;11.00;99.90
65036;DHT22;51603;49.300;8.880;2022-11-15T16:56:26;11.00;99.90
65036;DHT22;51603;49.300;8.880;2022-11-15T16:58:53;11.00;99.90
65036;DHT22;51603;49.300;8.880;2022-11-15T17:01:24;11.00;99.90
65036;DHT22;51603;49.300;8.880;2022-11-15T17:03:49;11.00;99.90
65036;DHT22;51603;49.300;8.880;2022-11-15T17:06:15;11.00;99.90
65036;DHT22;51603;49.300;8.880;2022-11-15T17:08:42;11.00;99.90
65036;DHT22;51603;49.300;8.880;2022-11-15T17:11:08;10.90;99.90
65036;DHT22;51603;49.300;8.880;2022-11-15T17:13:34;10.90;99.90
65036;DHT22;51603;49.300;8.880;2022-11-15T17:16:07;10.90;99.90
65036;DHT22;51603;49.300;8.880;2022-11-15T17:18:33;10.90;99.90
65036;DHT22;51603;49.300;8.880;2022-11-15T17:21:06;10.90;99.90
65036;DHT22;51603;49.300;8.880;2022-11-15T17:23:32;10.90;99.90
65036;DHT22;51603;49.300;8.880;2022-11-15T17:26:00;10.90;99.90
65036;DHT22;51603;49.300;8.880;2022-11-15T17:28:25;10.90;99.90
65036;DHT22;51603;49.300;8.880;2022-11-15T17:30:51;10.90;99.90
65036;DHT22;51603;49.300;8.880;2022-11-15T17:33:16;10.90;99.90
65036;DHT22;51603;49.300;8.880;2022-11-15T17:35:42;10.80;99.90
65036;DHT22;51603;49.300;8.880;2022-11-15T17:38:08;10.80;99.90
65036;DHT22;51603;49.300;8.880;2022-11-15T17:40:33;10.80;99.90
65036;DHT22;51603;49.300;8.880;2022-11-15T17:42:59;10.80;99.90
65036;DHT22;51603;49.300;8.880;2022-11-15T17:45:24;10.80;99.90
65036;DHT22;51603;49.300;8.880;2022-11-15T17:47:50;10.80;99.90
65036;DHT22;51603;49.300;8.880;2022-11-15T17:50:15;10.80;99.90
65036;DHT22;51603;49.300;8.880;2022-11-15T17:52:42;10.80;99.90
65036;DHT22;51603;49.300;8.880;2022-11-15T17:55:08;10.80;99.90
65036;DHT22;51603;49.300;8.880;2022-11-15T17:57:33;10.80;99.90